DucheSS Of Scandinavia — OUZI2 — position and weather

sailwx.info

Track history (hours):
 
Tides and Currents Weather Stations Pressure Air Temp Water Temp Dewpoint Dewpoint Depression Visibility Wind Speed Wind Dir Waves Ship Positions

DucheSS Of Scandinavia

Operator: DFDS A/S

Last reported at 2015-Aug-29 16:34 UTC. Time now 2015-Aug-29 17:00 UTC.
Position N 59°08' E 010°14'.

Length 134 m; draft 5.2 m.

Type: Passenger vessel. MMSI: 219002929.

Date/timePositionNaut miles runAvg speedWind from/ knotsBaromVisibWave heightAir tempDewpointWater temp
2015-Aug-29 16:34N 59°08' E 010°14'10 9.6
2015-Aug-29 15:34N 59°01' E 010°27'1515.0
2015-Aug-29 14:34N 59°00' E 010°56'8 8.5
2015-Aug-29 13:33N 58°56' E 011°10'1212.5
2015-Aug-29 12:34N 59°01' E 010°48'1615.6
2015-Aug-29 11:34N 59°01' E 010°18'7 7.2
2015-Aug-29 10:34N 59°08' E 010°14'7 7.0
2015-Aug-29 09:34N 59°01' E 010°20'1515.4
2015-Aug-29 08:34N 59°01' E 010°50'1211.8
2015-Aug-29 07:33N 58°56' E 011°10'9 8.8
2015-Aug-29 06:33N 59°00' E 010°55'1515.5
2015-Aug-29 05:34N 59°01' E 010°25'9 9.2
2015-Aug-29 04:33N 59°08' E 010°14'1 1.4
2015-Aug-29 03:33N 59°06' E 010°14'0 0.0
2015-Aug-29 02:33N 59°06' E 010°14'0 0.0
2015-Aug-29 01:33N 59°06' E 010°14'0 0.0
2015-Aug-29 00:33N 59°06' E 010°14'0 0.0
2015-Aug-28 23:33N 59°06' E 010°14'0 0.0
2015-Aug-28 22:33N 59°06' E 010°14'0 0.0
2015-Aug-28 21:33N 59°06' E 010°14'0 0.0
2015-Aug-28 20:33N 59°06' E 010°14'0 0.0
2015-Aug-28 19:33N 59°06' E 010°14'0 0.0
2015-Aug-28 18:33N 59°06' E 010°14'0 0.0
2015-Aug-28 17:33N 59°06' E 010°14'1 1.4
2015-Aug-28 16:33N 59°08' E 010°14'10 9.9
2015-Aug-28 15:33N 59°01' E 010°28'1514.8
2015-Aug-28 14:34N 59°00' E 010°56'8 7.7
2015-Aug-28 13:29N 58°56' E 011°10'1212.9
2015-Aug-28 12:33N 59°01' E 010°49'1515.5
2015-Aug-28 11:33N 59°01' E 010°19'7 7.2
2015-Aug-28 10:33N 59°08' E 010°14'7 7.1
2015-Aug-28 09:33N 59°01' E 010°20'1515.1
2015-Aug-28 08:34N 59°01' E 010°49'1211.9
2015-Aug-28 07:33N 58°56' E 011°10'8 8.1
2015-Aug-28 06:33N 59°00' E 010°57'1615.7
2015-Aug-28 05:33N 59°01' E 010°26'10 9.6
2015-Aug-28 04:34N 59°08' E 010°14'1 1.4
2015-Aug-28 03:33N 59°06' E 010°14'0 0.0
2015-Aug-28 02:32N 59°06' E 010°14'0 0.0
2015-Aug-28 01:33N 59°06' E 010°14'0 0.0
2015-Aug-28 00:33N 59°06' E 010°14'0 0.0
2015-Aug-27 23:31N 59°06' E 010°14'0 0.0
2015-Aug-27 22:33N 59°06' E 010°14'0 0.0
2015-Aug-27 21:33N 59°06' E 010°14'0 0.0
2015-Aug-27 20:33N 59°06' E 010°14'0 0.0
2015-Aug-27 19:33N 59°06' E 010°14'0 0.0
2015-Aug-27 18:33N 59°06' E 010°14'0 0.0
2015-Aug-27 17:33N 59°06' E 010°14'1 1.4
2015-Aug-27 16:32N 59°08' E 010°14'10 9.9
2015-Aug-27 15:33N 59°01' E 010°27'1514.6
2015-Aug-27 14:33N 59°00' E 010°56'9 8.2
2015-Aug-27 13:29N 58°56' E 011°10'1313.4
2015-Aug-27 12:34N 59°02' E 010°48'1616.4
2015-Aug-27 11:33N 59°02' E 010°16'6 6.2
2015-Aug-27 10:33N 59°08' E 010°14'7 7.0
2015-Aug-27 09:34N 59°01' E 010°20'1515.1
2015-Aug-27 08:34N 59°01' E 010°49'12 9.3
2015-Aug-27 07:15N 58°56' E 011°10'912.3
2015-Aug-27 06:33N 59°00' E 010°56'1615.8
2015-Aug-27 05:33N 59°01' E 010°25'9 9.2
2015-Aug-27 04:33N 59°08' E 010°14'1 1.4
2015-Aug-27 03:33N 59°06' E 010°14'0 0.0
2015-Aug-27 02:33N 59°06' E 010°14'0 0.0
2015-Aug-27 01:34N 59°06' E 010°14'0 0.0
2015-Aug-27 00:34N 59°06' E 010°14'0 0.0
2015-Aug-26 23:34N 59°06' E 010°14'0 0.0
2015-Aug-26 22:34N 59°06' E 010°14'0 0.0
2015-Aug-26 21:33N 59°06' E 010°14'0 0.0
2015-Aug-26 20:34N 59°06' E 010°14'0 0.0
2015-Aug-26 19:33N 59°06' E 010°14'0 0.0
2015-Aug-26 18:34N 59°06' E 010°14'0 0.0
2015-Aug-26 17:33N 59°06' E 010°14'1 1.4
2015-Aug-26 16:33N 59°08' E 010°14'1010.4
2015-Aug-26 15:34N 59°01' E 010°29'1413.9
2015-Aug-26 14:33N 59°00' E 010°56'9 8.7
2015-Aug-26 13:33N 58°56' E 011°10'1211.9
2015-Aug-26 12:34N 59°01' E 010°50'1615.7
2015-Aug-26 11:34N 59°01' E 010°19'7 7.0
2015-Aug-26 10:33N 59°08' E 010°14'7 7.1
2015-Aug-26 09:33N 59°01' E 010°20'1514.6
2015-Aug-26 08:33N 59°02' E 010°48'4 2.2
2015-Aug-26 06:34N 59°00' E 010°56'1615.9
2015-Aug-26 05:33N 59°01' E 010°26'9 9.1
2015-Aug-26 04:33N 59°08' E 010°14'1 1.1
2015-Aug-26 03:15N 59°06' E 010°14'0 0.0
2015-Aug-25 18:09N 59°06' E 010°14'0 0.0
2015-Aug-25 17:32N 59°06' E 010°14'1 1.4
2015-Aug-25 16:32N 59°08' E 010°14'1010.2
2015-Aug-25 15:33N 59°01' E 010°28'1414.3
2015-Aug-25 14:34N 59°00' E 010°56'8 6.8
2015-Aug-25 13:21N 58°56' E 011°09'1214.9
2015-Aug-25 12:33N 59°01' E 010°49'1616.2
2015-Aug-25 11:33N 59°01' E 010°18'7 6.5
2015-Aug-25 10:33N 59°08' E 010°14'7 7.1
2015-Aug-25 09:33N 59°01' E 010°20'1514.7
2015-Aug-25 08:33N 59°01' E 010°48'1312.5
2015-Aug-25 07:33N 58°56' E 011°10'8 8.0
2015-Aug-25 06:34N 59°00' E 010°57'1615.9
2015-Aug-25 05:33N 59°01' E 010°26'9 9.3
2015-Aug-25 04:33N 59°08' E 010°14'1 1.3
2015-Aug-25 03:25N 59°06' E 010°14'0 0.0
2015-Aug-25 02:33N 59°06' E 010°14'0 0.0
2015-Aug-25 01:34N 59°06' E 010°14'0 0.0
2015-Aug-25 00:33N 59°06' E 010°14'0 0.0
2015-Aug-24 23:34N 59°06' E 010°14'0 0.0
2015-Aug-24 22:33N 59°06' E 010°14'0 0.0
2015-Aug-24 21:33N 59°06' E 010°14'0 0.0
2015-Aug-24 20:32N 59°06' E 010°14'0 0.0
2015-Aug-24 19:33N 59°06' E 010°14'0 0.0
2015-Aug-24 18:33N 59°06' E 010°14'0 0.0
2015-Aug-24 17:33N 59°06' E 010°14'1 1.4
2015-Aug-24 16:34N 59°08' E 010°14'9 8.7
2015-Aug-24 15:34N 59°01' E 010°25'1615.5
2015-Aug-24 14:34N 59°00' E 010°55'9 9.0
2015-Aug-24 13:34N 58°56' E 011°10'1212.0
2015-Aug-24 12:33N 59°01' E 010°49'1616.2
2015-Aug-24 11:33N 59°01' E 010°18'7 6.6
2015-Aug-24 10:33N 59°08' E 010°14'7 6.8
2015-Aug-24 09:33N 59°01' E 010°19'1514.7
2015-Aug-24 08:34N 59°02' E 010°48'1312.8
2015-Aug-24 07:33N 58°56' E 011°10'8 7.7
2015-Aug-24 06:34N 58°60' E 010°57'1615.5
2015-Aug-24 05:33N 59°01' E 010°27'10 9.8
2015-Aug-24 04:33N 59°08' E 010°14'1 1.4
2015-Aug-24 03:34N 59°06' E 010°14'0 0.0
2015-Aug-24 02:34N 59°06' E 010°14'0 0.0
2015-Aug-24 01:33N 59°06' E 010°14'0 0.0
2015-Aug-24 00:34N 59°06' E 010°14'0 0.0
2015-Aug-23 23:33N 59°06' E 010°14'0 0.0
2015-Aug-23 22:33N 59°06' E 010°14'0 0.0
2015-Aug-23 21:34N 59°06' E 010°14'0 0.0
2015-Aug-23 20:34N 59°06' E 010°14'0 0.0
2015-Aug-23 19:34N 59°06' E 010°14'0 0.0
2015-Aug-23 18:34N 59°06' E 010°14'0 0.0
2015-Aug-23 17:34N 59°06' E 010°14'1 1.4
2015-Aug-23 16:34N 59°08' E 010°14'1010.3
2015-Aug-23 15:33N 59°01' E 010°29'1616.0
2015-Aug-23 14:33N 58°59' E 010°60'6 6.4
2015-Aug-23 13:33N 58°56' E 011°10'1212.2
2015-Aug-23 12:33N 59°01' E 010°49'1616.2
2015-Aug-23 11:33N 59°01' E 010°18'7 6.6
2015-Aug-23 10:34N 59°08' E 010°14'7 6.7
2015-Aug-23 09:33N 59°01' E 010°19'1514.6
2015-Aug-23 08:34N 59°02' E 010°47'1313.1
2015-Aug-23 07:33N 58°56' E 011°10'9 8.5
2015-Aug-23 06:33N 59°00' E 010°56'1615.6
2015-Aug-23 05:34N 59°01' E 010°26'9 9.2
2015-Aug-23 04:34N 59°08' E 010°14'1 1.4
2015-Aug-23 03:33N 59°06' E 010°14'0 0.0
2015-Aug-23 02:33N 59°06' E 010°14'0 0.0
2015-Aug-23 01:33N 59°06' E 010°14'0 0.0
2015-Aug-23 00:34N 59°06' E 010°14'0 0.0
2015-Aug-22 23:34N 59°06' E 010°14'0 0.0
2015-Aug-22 22:33N 59°06' E 010°14'0 0.0
2015-Aug-22 21:34N 59°06' E 010°14'0 0.0
2015-Aug-22 20:34N 59°06' E 010°14'0 0.0
2015-Aug-22 19:34N 59°06' E 010°14'0 0.0
2015-Aug-22 18:33N 59°06' E 010°14'0 0.0
2015-Aug-22 17:34N 59°06' E 010°14'1 1.4
2015-Aug-22 16:34N 59°08' E 010°14'10 9.6
2015-Aug-22 15:34N 59°01' E 010°27'1616.4
2015-Aug-22 14:34N 58°60' E 010°59'7 7.0
2015-Aug-22 13:33N 58°56' E 011°10'1111.2
2015-Aug-22 12:34N 59°01' E 010°51'1616.2
2015-Aug-22 11:34N 59°01' E 010°19'7 7.1
2015-Aug-22 10:34N 59°08' E 010°14'7 6.7
2015-Aug-22 09:34N 59°01' E 010°19'1515.3
2015-Aug-22 08:34N 59°01' E 010°49'1212.2
2015-Aug-22 07:34N 58°56' E 011°10'8 7.9
2015-Aug-22 06:34N 59°00' E 010°57'1616.0
2015-Aug-22 05:34N 59°01' E 010°26'9 9.4
2015-Aug-22 04:34N 59°08' E 010°14'1 1.4
2015-Aug-22 03:34N 59°06' E 010°14'0 0.0
2015-Aug-22 02:34N 59°06' E 010°14'0 0.0
2015-Aug-22 01:34N 59°06' E 010°14'0 0.0
2015-Aug-22 00:34N 59°06' E 010°14'0 0.0
2015-Aug-21 23:34N 59°06' E 010°14'0 0.0
2015-Aug-21 22:33N 59°06' E 010°14'0 0.0
2015-Aug-21 21:34N 59°06' E 010°14'0 0.0
2015-Aug-21 20:34N 59°06' E 010°14'0 0.0
2015-Aug-21 19:34N 59°06' E 010°14'0 0.0
2015-Aug-21 18:34N 59°06' E 010°14'0 0.0
2015-Aug-21 17:33N 59°06' E 010°14'1 1.3
2015-Aug-21 16:34N 59°07' E 010°14'1111.3
2015-Aug-21 15:34N 59°01' E 010°31'1515.0
2015-Aug-21 14:34N 58°59' E 010°60'6 6.2
2015-Aug-21 13:34N 58°56' E 011°10'1212.3
2015-Aug-21 12:34N 59°02' E 010°49'1616.2
2015-Aug-21 11:34N 59°01' E 010°17'6 6.5
2015-Aug-21 10:33N 59°08' E 010°14'7 7.4
2015-Aug-21 09:33N 59°01' E 010°21'1414.1
2015-Aug-21 08:34N 59°01' E 010°49'1212.4
2015-Aug-21 07:34N 58°56' E 011°10'8 8.3
2015-Aug-21 06:34N 59°00' E 010°56'1615.6
2015-Aug-21 05:34N 59°01' E 010°26'9 9.4
2015-Aug-21 04:34N 59°08' E 010°14'1 1.4
2015-Aug-21 03:33N 59°06' E 010°14'0 0.0
2015-Aug-21 02:28N 59°06' E 010°14'0 0.0
2015-Aug-21 01:34N 59°06' E 010°14'0 0.0
2015-Aug-21 00:33N 59°06' E 010°14'0 0.0
2015-Aug-20 23:33N 59°06' E 010°14'0 0.0
2015-Aug-20 22:33N 59°06' E 010°14'0 0.0
2015-Aug-20 21:34N 59°06' E 010°14'0 0.0
2015-Aug-20 20:31N 59°06' E 010°14'0 0.0
2015-Aug-20 18:33N 59°06' E 010°14'0 0.0
2015-Aug-20 17:30N 59°06' E 010°14'1 1.5
2015-Aug-20 16:33N 59°08' E 010°14'9 9.5
2015-Aug-20 15:34N 59°01' E 010°27'1515.4
2015-Aug-20 14:34N 59°00' E 010°57'8 8.1
2015-Aug-20 13:34N 58°56' E 011°10'1110.9
2015-Aug-20 12:34N 59°01' E 010°51'1716.8
2015-Aug-20 11:34N 59°01' E 010°19'7 6.9
2015-Aug-20 10:34N 59°08' E 010°14'7 7.3
2015-Aug-20 09:33N 59°01' E 010°21'1414.4
2015-Aug-20 08:34N 59°02' E 010°49'1212.4
2015-Aug-20 07:34N 58°56' E 011°10'8 8.4
2015-Aug-20 06:34N 59°00' E 010°56'1616.0
2015-Aug-20 05:33N 59°01' E 010°25'9 9.0
2015-Aug-20 04:34N 59°08' E 010°14'1 1.4
2015-Aug-20 03:34N 59°06' E 010°14'0 0.0
2015-Aug-20 02:33N 59°06' E 010°14'0 0.0
2015-Aug-20 01:33N 59°06' E 010°14'0 0.0
2015-Aug-20 00:34N 59°06' E 010°14'0 0.0
2015-Aug-19 23:34N 59°06' E 010°14'0 0.0
2015-Aug-19 22:34N 59°06' E 010°14'0 0.0
2015-Aug-19 21:34N 59°06' E 010°14'0 0.0
2015-Aug-19 20:33N 59°06' E 010°14'0 0.0
2015-Aug-19 19:33N 59°06' E 010°14'0 0.0
2015-Aug-19 18:33N 59°06' E 010°14'0 0.0
2015-Aug-19 17:34N 59°06' E 010°14'1 1.4
2015-Aug-19 16:34N 59°08' E 010°14'  
Track history (hours):
 
Tides and Currents Weather Stations Pressure Air Temp Water Temp Dewpoint Dewpoint Depression Visibility Wind Speed Wind Dir Waves Ship Positions

DucheSS Of Scandinavia

Operator: DFDS A/S

Last reported at 2015-Aug-29 16:34 UTC. Time now 2015-Aug-29 17:00 UTC.
Position N 59°08' E 010°14'.

Length 134 m; draft 5.2 m.

Type: Passenger vessel. MMSI: 219002929.

Date/timePositionNaut miles runAvg speedWind from/ knotsBaromVisibWave heightAir tempDewpointWater temp
2015-Aug-29 16:34N 59°08' E 010°14'10 9.6
2015-Aug-29 15:34N 59°01' E 010°27'1515.0
2015-Aug-29 14:34N 59°00' E 010°56'8 8.5
2015-Aug-29 13:33N 58°56' E 011°10'1212.5
2015-Aug-29 12:34N 59°01' E 010°48'1615.6
2015-Aug-29 11:34N 59°01' E 010°18'7 7.2
2015-Aug-29 10:34N 59°08' E 010°14'7 7.0
2015-Aug-29 09:34N 59°01' E 010°20'1515.4
2015-Aug-29 08:34N 59°01' E 010°50'1211.8
2015-Aug-29 07:33N 58°56' E 011°10'9 8.8
2015-Aug-29 06:33N 59°00' E 010°55'1515.5
2015-Aug-29 05:34N 59°01' E 010°25'9 9.2
2015-Aug-29 04:33N 59°08' E 010°14'1 1.4
2015-Aug-29 03:33N 59°06' E 010°14'0 0.0
2015-Aug-29 02:33N 59°06' E 010°14'0 0.0
2015-Aug-29 01:33N 59°06' E 010°14'0 0.0
2015-Aug-29 00:33N 59°06' E 010°14'0 0.0
2015-Aug-28 23:33N 59°06' E 010°14'0 0.0
2015-Aug-28 22:33N 59°06' E 010°14'0 0.0
2015-Aug-28 21:33N 59°06' E 010°14'0 0.0
2015-Aug-28 20:33N 59°06' E 010°14'0 0.0
2015-Aug-28 19:33N 59°06' E 010°14'0 0.0
2015-Aug-28 18:33N 59°06' E 010°14'0 0.0
2015-Aug-28 17:33N 59°06' E 010°14'1 1.4
2015-Aug-28 16:33N 59°08' E 010°14'10 9.9
2015-Aug-28 15:33N 59°01' E 010°28'1514.8
2015-Aug-28 14:34N 59°00' E 010°56'8 7.7
2015-Aug-28 13:29N 58°56' E 011°10'1212.9
2015-Aug-28 12:33N 59°01' E 010°49'1515.5
2015-Aug-28 11:33N 59°01' E 010°19'7 7.2
2015-Aug-28 10:33N 59°08' E 010°14'7 7.1
2015-Aug-28 09:33N 59°01' E 010°20'1515.1
2015-Aug-28 08:34N 59°01' E 010°49'1211.9
2015-Aug-28 07:33N 58°56' E 011°10'8 8.1
2015-Aug-28 06:33N 59°00' E 010°57'1615.7
2015-Aug-28 05:33N 59°01' E 010°26'10 9.6
2015-Aug-28 04:34N 59°08' E 010°14'1 1.4
2015-Aug-28 03:33N 59°06' E 010°14'0 0.0
2015-Aug-28 02:32N 59°06' E 010°14'0 0.0
2015-Aug-28 01:33N 59°06' E 010°14'0 0.0
2015-Aug-28 00:33N 59°06' E 010°14'0 0.0
2015-Aug-27 23:31N 59°06' E 010°14'0 0.0
2015-Aug-27 22:33N 59°06' E 010°14'0 0.0
2015-Aug-27 21:33N 59°06' E 010°14'0 0.0
2015-Aug-27 20:33N 59°06' E 010°14'0 0.0
2015-Aug-27 19:33N 59°06' E 010°14'0 0.0
2015-Aug-27 18:33N 59°06' E 010°14'0 0.0
2015-Aug-27 17:33N 59°06' E 010°14'1 1.4
2015-Aug-27 16:32N 59°08' E 010°14'10 9.9
2015-Aug-27 15:33N 59°01' E 010°27'1514.6
2015-Aug-27 14:33N 59°00' E 010°56'9 8.2
2015-Aug-27 13:29N 58°56' E 011°10'1313.4
2015-Aug-27 12:34N 59°02' E 010°48'1616.4
2015-Aug-27 11:33N 59°02' E 010°16'6 6.2
2015-Aug-27 10:33N 59°08' E 010°14'7 7.0
2015-Aug-27 09:34N 59°01' E 010°20'1515.1
2015-Aug-27 08:34N 59°01' E 010°49'12 9.3
2015-Aug-27 07:15N 58°56' E 011°10'912.3
2015-Aug-27 06:33N 59°00' E 010°56'1615.8
2015-Aug-27 05:33N 59°01' E 010°25'9 9.2
2015-Aug-27 04:33N 59°08' E 010°14'1 1.4
2015-Aug-27 03:33N 59°06' E 010°14'0 0.0
2015-Aug-27 02:33N 59°06' E 010°14'0 0.0
2015-Aug-27 01:34N 59°06' E 010°14'0 0.0
2015-Aug-27 00:34N 59°06' E 010°14'0 0.0
2015-Aug-26 23:34N 59°06' E 010°14'0 0.0
2015-Aug-26 22:34N 59°06' E 010°14'0 0.0
2015-Aug-26 21:33N 59°06' E 010°14'0 0.0
2015-Aug-26 20:34N 59°06' E 010°14'0 0.0
2015-Aug-26 19:33N 59°06' E 010°14'0 0.0
2015-Aug-26 18:34N 59°06' E 010°14'0 0.0
2015-Aug-26 17:33N 59°06' E 010°14'1 1.4
2015-Aug-26 16:33N 59°08' E 010°14'1010.4
2015-Aug-26 15:34N 59°01' E 010°29'1413.9
2015-Aug-26 14:33N 59°00' E 010°56'9 8.7
2015-Aug-26 13:33N 58°56' E 011°10'1211.9
2015-Aug-26 12:34N 59°01' E 010°50'1615.7
2015-Aug-26 11:34N 59°01' E 010°19'7 7.0
2015-Aug-26 10:33N 59°08' E 010°14'7 7.1
2015-Aug-26 09:33N 59°01' E 010°20'1514.6
2015-Aug-26 08:33N 59°02' E 010°48'4 2.2
2015-Aug-26 06:34N 59°00' E 010°56'1615.9
2015-Aug-26 05:33N 59°01' E 010°26'9 9.1
2015-Aug-26 04:33N 59°08' E 010°14'1 1.1
2015-Aug-26 03:15N 59°06' E 010°14'0 0.0
2015-Aug-25 18:09N 59°06' E 010°14'0 0.0
2015-Aug-25 17:32N 59°06' E 010°14'1 1.4
2015-Aug-25 16:32N 59°08' E 010°14'1010.2
2015-Aug-25 15:33N 59°01' E 010°28'1414.3
2015-Aug-25 14:34N 59°00' E 010°56'8 6.8
2015-Aug-25 13:21N 58°56' E 011°09'1214.9
2015-Aug-25 12:33N 59°01' E 010°49'1616.2
2015-Aug-25 11:33N 59°01' E 010°18'7 6.5
2015-Aug-25 10:33N 59°08' E 010°14'7 7.1
2015-Aug-25 09:33N 59°01' E 010°20'1514.7
2015-Aug-25 08:33N 59°01' E 010°48'1312.5
2015-Aug-25 07:33N 58°56' E 011°10'8 8.0
2015-Aug-25 06:34N 59°00' E 010°57'1615.9
2015-Aug-25 05:33N 59°01' E 010°26'9 9.3
2015-Aug-25 04:33N 59°08' E 010°14'1 1.3
2015-Aug-25 03:25N 59°06' E 010°14'0 0.0
2015-Aug-25 02:33N 59°06' E 010°14'0 0.0
2015-Aug-25 01:34N 59°06' E 010°14'0 0.0
2015-Aug-25 00:33N 59°06' E 010°14'0 0.0
2015-Aug-24 23:34N 59°06' E 010°14'0 0.0
2015-Aug-24 22:33N 59°06' E 010°14'0 0.0
2015-Aug-24 21:33N 59°06' E 010°14'0 0.0
2015-Aug-24 20:32N 59°06' E 010°14'0 0.0
2015-Aug-24 19:33N 59°06' E 010°14'0 0.0
2015-Aug-24 18:33N 59°06' E 010°14'0 0.0
2015-Aug-24 17:33N 59°06' E 010°14'1 1.4
2015-Aug-24 16:34N 59°08' E 010°14'9 8.7
2015-Aug-24 15:34N 59°01' E 010°25'1615.5
2015-Aug-24 14:34N 59°00' E 010°55'9 9.0
2015-Aug-24 13:34N 58°56' E 011°10'1212.0
2015-Aug-24 12:33N 59°01' E 010°49'1616.2
2015-Aug-24 11:33N 59°01' E 010°18'7 6.6
2015-Aug-24 10:33N 59°08' E 010°14'7 6.8
2015-Aug-24 09:33N 59°01' E 010°19'1514.7
2015-Aug-24 08:34N 59°02' E 010°48'1312.8
2015-Aug-24 07:33N 58°56' E 011°10'8 7.7
2015-Aug-24 06:34N 58°60' E 010°57'1615.5
2015-Aug-24 05:33N 59°01' E 010°27'10 9.8
2015-Aug-24 04:33N 59°08' E 010°14'1 1.4
2015-Aug-24 03:34N 59°06' E 010°14'0 0.0
2015-Aug-24 02:34N 59°06' E 010°14'0 0.0
2015-Aug-24 01:33N 59°06' E 010°14'0 0.0
2015-Aug-24 00:34N 59°06' E 010°14'0 0.0
2015-Aug-23 23:33N 59°06' E 010°14'0 0.0
2015-Aug-23 22:33N 59°06' E 010°14'0 0.0
2015-Aug-23 21:34N 59°06' E 010°14'0 0.0
2015-Aug-23 20:34N 59°06' E 010°14'0 0.0
2015-Aug-23 19:34N 59°06' E 010°14'0 0.0
2015-Aug-23 18:34N 59°06' E 010°14'0 0.0
2015-Aug-23 17:34N 59°06' E 010°14'1 1.4
2015-Aug-23 16:34N 59°08' E 010°14'1010.3
2015-Aug-23 15:33N 59°01' E 010°29'1616.0
2015-Aug-23 14:33N 58°59' E 010°60'6 6.4
2015-Aug-23 13:33N 58°56' E 011°10'1212.2
2015-Aug-23 12:33N 59°01' E 010°49'1616.2
2015-Aug-23 11:33N 59°01' E 010°18'7 6.6
2015-Aug-23 10:34N 59°08' E 010°14'7 6.7
2015-Aug-23 09:33N 59°01' E 010°19'1514.6
2015-Aug-23 08:34N 59°02' E 010°47'1313.1
2015-Aug-23 07:33N 58°56' E 011°10'9 8.5
2015-Aug-23 06:33N 59°00' E 010°56'1615.6
2015-Aug-23 05:34N 59°01' E 010°26'9 9.2
2015-Aug-23 04:34N 59°08' E 010°14'1 1.4
2015-Aug-23 03:33N 59°06' E 010°14'0 0.0
2015-Aug-23 02:33N 59°06' E 010°14'0 0.0
2015-Aug-23 01:33N 59°06' E 010°14'0 0.0
2015-Aug-23 00:34N 59°06' E 010°14'0 0.0
2015-Aug-22 23:34N 59°06' E 010°14'0 0.0
2015-Aug-22 22:33N 59°06' E 010°14'0 0.0
2015-Aug-22 21:34N 59°06' E 010°14'0 0.0
2015-Aug-22 20:34N 59°06' E 010°14'0 0.0
2015-Aug-22 19:34N 59°06' E 010°14'0 0.0
2015-Aug-22 18:33N 59°06' E 010°14'0 0.0
2015-Aug-22 17:34N 59°06' E 010°14'1 1.4
2015-Aug-22 16:34N 59°08' E 010°14'10 9.6
2015-Aug-22 15:34N 59°01' E 010°27'1616.4
2015-Aug-22 14:34N 58°60' E 010°59'7 7.0
2015-Aug-22 13:33N 58°56' E 011°10'1111.2
2015-Aug-22 12:34N 59°01' E 010°51'1616.2
2015-Aug-22 11:34N 59°01' E 010°19'7 7.1
2015-Aug-22 10:34N 59°08' E 010°14'7 6.7
2015-Aug-22 09:34N 59°01' E 010°19'1515.3
2015-Aug-22 08:34N 59°01' E 010°49'1212.2
2015-Aug-22 07:34N 58°56' E 011°10'8 7.9
2015-Aug-22 06:34N 59°00' E 010°57'1616.0
2015-Aug-22 05:34N 59°01' E 010°26'9 9.4
2015-Aug-22 04:34N 59°08' E 010°14'1 1.4
2015-Aug-22 03:34N 59°06' E 010°14'0 0.0
2015-Aug-22 02:34N 59°06' E 010°14'0 0.0
2015-Aug-22 01:34N 59°06' E 010°14'0 0.0
2015-Aug-22 00:34N 59°06' E 010°14'0 0.0
2015-Aug-21 23:34N 59°06' E 010°14'0 0.0
2015-Aug-21 22:33N 59°06' E 010°14'0 0.0
2015-Aug-21 21:34N 59°06' E 010°14'0 0.0
2015-Aug-21 20:34N 59°06' E 010°14'0 0.0
2015-Aug-21 19:34N 59°06' E 010°14'0 0.0
2015-Aug-21 18:34N 59°06' E 010°14'0 0.0
2015-Aug-21 17:33N 59°06' E 010°14'1 1.3
2015-Aug-21 16:34N 59°07' E 010°14'1111.3
2015-Aug-21 15:34N 59°01' E 010°31'1515.0
2015-Aug-21 14:34N 58°59' E 010°60'6 6.2
2015-Aug-21 13:34N 58°56' E 011°10'1212.3
2015-Aug-21 12:34N 59°02' E 010°49'1616.2
2015-Aug-21 11:34N 59°01' E 010°17'6 6.5
2015-Aug-21 10:33N 59°08' E 010°14'7 7.4
2015-Aug-21 09:33N 59°01' E 010°21'1414.1
2015-Aug-21 08:34N 59°01' E 010°49'1212.4
2015-Aug-21 07:34N 58°56' E 011°10'8 8.3
2015-Aug-21 06:34N 59°00' E 010°56'1615.6
2015-Aug-21 05:34N 59°01' E 010°26'9 9.4
2015-Aug-21 04:34N 59°08' E 010°14'1 1.4
2015-Aug-21 03:33N 59°06' E 010°14'0 0.0
2015-Aug-21 02:28N 59°06' E 010°14'0 0.0
2015-Aug-21 01:34N 59°06' E 010°14'0 0.0
2015-Aug-21 00:33N 59°06' E 010°14'0 0.0
2015-Aug-20 23:33N 59°06' E 010°14'0 0.0
2015-Aug-20 22:33N 59°06' E 010°14'0 0.0
2015-Aug-20 21:34N 59°06' E 010°14'0 0.0
2015-Aug-20 20:31N 59°06' E 010°14'0 0.0
2015-Aug-20 18:33N 59°06' E 010°14'0 0.0
2015-Aug-20 17:30N 59°06' E 010°14'1 1.5
2015-Aug-20 16:33N 59°08' E 010°14'9 9.5
2015-Aug-20 15:34N 59°01' E 010°27'1515.4
2015-Aug-20 14:34N 59°00' E 010°57'8 8.1
2015-Aug-20 13:34N 58°56' E 011°10'1110.9
2015-Aug-20 12:34N 59°01' E 010°51'1716.8
2015-Aug-20 11:34N 59°01' E 010°19'7 6.9
2015-Aug-20 10:34N 59°08' E 010°14'7 7.3
2015-Aug-20 09:33N 59°01' E 010°21'1414.4
2015-Aug-20 08:34N 59°02' E 010°49'1212.4
2015-Aug-20 07:34N 58°56' E 011°10'8 8.4
2015-Aug-20 06:34N 59°00' E 010°56'1616.0
2015-Aug-20 05:33N 59°01' E 010°25'9 9.0
2015-Aug-20 04:34N 59°08' E 010°14'1 1.4
2015-Aug-20 03:34N 59°06' E 010°14'0 0.0
2015-Aug-20 02:33N 59°06' E 010°14'0 0.0
2015-Aug-20 01:33N 59°06' E 010°14'0 0.0
2015-Aug-20 00:34N 59°06' E 010°14'0 0.0
2015-Aug-19 23:34N 59°06' E 010°14'0 0.0
2015-Aug-19 22:34N 59°06' E 010°14'0 0.0
2015-Aug-19 21:34N 59°06' E 010°14'0 0.0
2015-Aug-19 20:33N 59°06' E 010°14'0 0.0
2015-Aug-19 19:33N 59°06' E 010°14'0 0.0
2015-Aug-19 18:33N 59°06' E 010°14'0 0.0
2015-Aug-19 17:34N 59°06' E 010°14'1 1.4
2015-Aug-19 16:34N 59°08' E 010°14'  

Dump ship's entire track history